sensor_id;sensor_type;location;lat;lon;timestamp;P1;durP1;ratioP1;P2;durP2;ratioP2
56043;SDS011;41912;51.022;3.664;2023-06-26T00:01:25;12.68;;;3.35;;
56043;SDS011;41912;51.022;3.664;2023-06-26T00:03:54;7.80;;;3.22;;
56043;SDS011;41912;51.022;3.664;2023-06-26T00:06:20;15.20;;;3.85;;
56043;SDS011;41912;51.022;3.664;2023-06-26T00:08:46;9.75;;;3.50;;
56043;SDS011;41912;51.022;3.664;2023-06-26T00:11:11;7.45;;;3.50;;
56043;SDS011;41912;51.022;3.664;2023-06-26T00:13:37;7.47;;;3.35;;
56043;SDS011;41912;51.022;3.664;2023-06-26T00:16:03;6.47;;;3.50;;
56043;SDS011;41912;51.022;3.664;2023-06-26T00:18:29;10.05;;;3.63;;
56043;SDS011;41912;51.022;3.664;2023-06-26T00:20:55;6.28;;;3.20;;
56043;SDS011;41912;51.022;3.664;2023-06-26T00:23:20;7.32;;;3.50;;
56043;SDS011;41912;51.022;3.664;2023-06-26T00:25:46;7.55;;;3.15;;
56043;SDS011;41912;51.022;3.664;2023-06-26T00:28:12;8.68;;;3.60;;
56043;SDS011;41912;51.022;3.664;2023-06-26T00:30:37;8.23;;;3.35;;
56043;SDS011;41912;51.022;3.664;2023-06-26T00:33:03;10.27;;;3.38;;
56043;SDS011;41912;51.022;3.664;2023-06-26T00:35:28;8.68;;;3.88;;
56043;SDS011;41912;51.022;3.664;2023-06-26T00:37:54;5.90;;;2.92;;
56043;SDS011;41912;51.022;3.664;2023-06-26T00:40:20;7.45;;;3.08;;
56043;SDS011;41912;51.022;3.664;2023-06-26T00:42:45;9.75;;;3.47;;
56043;SDS011;41912;51.022;3.664;2023-06-26T00:45:11;8.27;;;3.30;;
56043;SDS011;41912;51.022;3.664;2023-06-26T00:47:36;9.23;;;3.13;;
56043;SDS011;41912;51.022;3.664;2023-06-26T00:50:02;6.78;;;2.75;;
56043;SDS011;41912;51.022;3.664;2023-06-26T00:52:29;6.78;;;3.25;;
56043;SDS011;41912;51.022;3.664;2023-06-26T00:54:56;9.68;;;3.20;;
56043;SDS011;41912;51.022;3.664;2023-06-26T00:57:22;9.63;;;3.33;;
56043;SDS011;41912;51.022;3.664;2023-06-26T00:59:49;7.05;;;2.67;;
56043;SDS011;41912;51.022;3.664;2023-06-26T01:02:15;9.20;;;3.25;;
56043;SDS011;41912;51.022;3.664;2023-06-26T01:04:46;7.63;;;2.85;;
56043;SDS011;41912;51.022;3.664;2023-06-26T01:07:13;11.40;;;3.10;;
56043;SDS011;41912;51.022;3.664;2023-06-26T01:09:40;11.68;;;3.78;;
56043;SDS011;41912;51.022;3.664;2023-06-26T01:12:06;10.43;;;3.42;;
56043;SDS011;41912;51.022;3.664;2023-06-26T01:14:33;10.77;;;3.30;;
56043;SDS011;41912;51.022;3.664;2023-06-26T01:17:01;9.35;;;3.15;;
56043;SDS011;41912;51.022;3.664;2023-06-26T01:19:27;7.88;;;3.30;;
56043;SDS011;41912;51.022;3.664;2023-06-26T01:22:00;10.23;;;3.30;;
56043;SDS011;41912;51.022;3.664;2023-06-26T01:24:42;9.25;;;2.83;;
56043;SDS011;41912;51.022;3.664;2023-06-26T01:27:18;12.63;;;3.55;;
56043;SDS011;41912;51.022;3.664;2023-06-26T01:29:47;13.45;;;3.25;;
56043;SDS011;41912;51.022;3.664;2023-06-26T01:32:14;8.98;;;3.83;;
56043;SDS011;41912;51.022;3.664;2023-06-26T01:34:40;12.50;;;3.60;;
56043;SDS011;41912;51.022;3.664;2023-06-26T01:37:07;12.18;;;3.95;;
56043;SDS011;41912;51.022;3.664;2023-06-26T01:39:32;12.65;;;4.15;;
56043;SDS011;41912;51.022;3.664;2023-06-26T01:41:58;9.90;;;3.60;;
56043;SDS011;41912;51.022;3.664;2023-06-26T01:44:28;10.77;;;3.38;;
56043;SDS011;41912;51.022;3.664;2023-06-26T01:47:04;10.40;;;3.78;;
56043;SDS011;41912;51.022;3.664;2023-06-26T01:49:38;5.53;;;2.78;;
56043;SDS011;41912;51.022;3.664;2023-06-26T01:52:28;11.02;;;3.47;;
56043;SDS011;41912;51.022;3.664;2023-06-26T01:55:09;8.95;;;3.25;;
56043;SDS011;41912;51.022;3.664;2023-06-26T01:57:36;13.50;;;3.78;;
56043;SDS011;41912;51.022;3.664;2023-06-26T02:00:04;14.95;;;4.35;;
56043;SDS011;41912;51.022;3.664;2023-06-26T02:02:31;12.55;;;4.00;;
56043;SDS011;41912;51.022;3.664;2023-06-26T02:04:57;13.52;;;3.90;;
56043;SDS011;41912;51.022;3.664;2023-06-26T02:07:23;11.55;;;3.70;;
56043;SDS011;41912;51.022;3.664;2023-06-26T02:09:49;14.10;;;4.10;;
56043;SDS011;41912;51.022;3.664;2023-06-26T02:12:14;15.15;;;4.13;;
56043;SDS011;41912;51.022;3.664;2023-06-26T02:14:40;15.57;;;4.47;;
56043;SDS011;41912;51.022;3.664;2023-06-26T02:17:05;11.77;;;4.13;;
56043;SDS011;41912;51.022;3.664;2023-06-26T02:19:33;15.68;;;4.72;;
56043;SDS011;41912;51.022;3.664;2023-06-26T02:21:59;14.93;;;3.88;;
56043;SDS011;41912;51.022;3.664;2023-06-26T02:24:24;13.13;;;4.63;;
56043;SDS011;41912;51.022;3.664;2023-06-26T02:26:52;14.65;;;4.53;;
56043;SDS011;41912;51.022;3.664;2023-06-26T02:29:18;16.35;;;4.65;;
56043;SDS011;41912;51.022;3.664;2023-06-26T02:31:43;17.42;;;4.28;;
56043;SDS011;41912;51.022;3.664;2023-06-26T02:34:09;14.70;;;4.20;;
56043;SDS011;41912;51.022;3.664;2023-06-26T02:36:35;14.60;;;5.07;;
56043;SDS011;41912;51.022;3.664;2023-06-26T02:39:01;15.15;;;4.28;;
56043;SDS011;41912;51.022;3.664;2023-06-26T02:41:26;14.45;;;4.28;;
56043;SDS011;41912;51.022;3.664;2023-06-26T02:43:52;18.40;;;4.53;;
56043;SDS011;41912;51.022;3.664;2023-06-26T02:46:17;15.60;;;4.38;;
56043;SDS011;41912;51.022;3.664;2023-06-26T02:48:43;15.95;;;4.88;;
56043;SDS011;41912;51.022;3.664;2023-06-26T02:51:09;14.90;;;4.00;;
56043;SDS011;41912;51.022;3.664;2023-06-26T02:53:34;14.18;;;4.68;;
56043;SDS011;41912;51.022;3.664;2023-06-26T02:56:00;27.20;;;5.05;;
56043;SDS011;41912;51.022;3.664;2023-06-26T02:58:25;20.20;;;5.70;;
56043;SDS011;41912;51.022;3.664;2023-06-26T03:00:51;18.80;;;4.55;;
56043;SDS011;41912;51.022;3.664;2023-06-26T03:03:20;19.15;;;5.22;;
56043;SDS011;41912;51.022;3.664;2023-06-26T03:05:45;21.25;;;4.50;;
56043;SDS011;41912;51.022;3.664;2023-06-26T03:08:11;18.25;;;5.22;;
56043;SDS011;41912;51.022;3.664;2023-06-26T03:10:36;12.70;;;4.68;;
56043;SDS011;41912;51.022;3.664;2023-06-26T03:13:02;15.98;;;4.55;;
56043;SDS011;41912;51.022;3.664;2023-06-26T03:15:27;18.92;;;4.97;;
56043;SDS011;41912;51.022;3.664;2023-06-26T03:17:53;19.38;;;5.07;;
56043;SDS011;41912;51.022;3.664;2023-06-26T03:20:19;21.80;;;5.45;;
56043;SDS011;41912;51.022;3.664;2023-06-26T03:22:44;22.45;;;4.65;;
56043;SDS011;41912;51.022;3.664;2023-06-26T03:25:10;15.55;;;3.83;;
56043;SDS011;41912;51.022;3.664;2023-06-26T03:27:35;20.65;;;4.78;;
56043;SDS011;41912;51.022;3.664;2023-06-26T03:30:01;21.42;;;5.18;;
56043;SDS011;41912;51.022;3.664;2023-06-26T03:32:27;15.52;;;4.50;;
56043;SDS011;41912;51.022;3.664;2023-06-26T03:34:52;18.05;;;4.32;;
56043;SDS011;41912;51.022;3.664;2023-06-26T03:37:18;22.15;;;4.78;;
56043;SDS011;41912;51.022;3.664;2023-06-26T03:39:44;17.00;;;4.68;;
56043;SDS011;41912;51.022;3.664;2023-06-26T03:42:09;17.85;;;4.38;;
56043;SDS011;41912;51.022;3.664;2023-06-26T03:44:35;12.00;;;3.63;;
56043;SDS011;41912;51.022;3.664;2023-06-26T03:47:01;17.25;;;3.75;;
56043;SDS011;41912;51.022;3.664;2023-06-26T03:49:26;12.02;;;3.58;;
56043;SDS011;41912;51.022;3.664;2023-06-26T03:51:52;19.85;;;3.67;;
56043;SDS011;41912;51.022;3.664;2023-06-26T03:54:18;19.33;;;4.85;;
56043;SDS011;41912;51.022;3.664;2023-06-26T03:56:43;18.55;;;4.00;;
56043;SDS011;41912;51.022;3.664;2023-06-26T03:59:09;15.70;;;3.88;;
56043;SDS011;41912;51.022;3.664;2023-06-26T04:01:36;18.92;;;3.97;;
56043;SDS011;41912;51.022;3.664;2023-06-26T04:04:02;17.38;;;3.90;;
56043;SDS011;41912;51.022;3.664;2023-06-26T04:06:28;15.73;;;3.85;;
56043;SDS011;41912;51.022;3.664;2023-06-26T04:08:56;20.50;;;3.97;;
56043;SDS011;41912;51.022;3.664;2023-06-26T04:11:22;17.38;;;3.63;;
56043;SDS011;41912;51.022;3.664;2023-06-26T04:13:48;14.75;;;3.78;;
56043;SDS011;41912;51.022;3.664;2023-06-26T04:16:13;17.13;;;3.60;;
56043;SDS011;41912;51.022;3.664;2023-06-26T04:18:39;18.92;;;4.22;;
56043;SDS011;41912;51.022;3.664;2023-06-26T04:21:08;18.70;;;3.58;;
56043;SDS011;41912;51.022;3.664;2023-06-26T04:23:36;15.70;;;3.88;;
56043;SDS011;41912;51.022;3.664;2023-06-26T04:26:02;12.82;;;3.22;;
56043;SDS011;41912;51.022;3.664;2023-06-26T04:28:30;20.42;;;3.70;;
56043;SDS011;41912;51.022;3.664;2023-06-26T04:30:59;13.45;;;3.70;;
56043;SDS011;41912;51.022;3.664;2023-06-26T04:33:25;11.45;;;3.35;;
56043;SDS011;41912;51.022;3.664;2023-06-26T04:35:51;19.13;;;3.63;;
56043;SDS011;41912;51.022;3.664;2023-06-26T04:38:18;11.40;;;3.22;;
56043;SDS011;41912;51.022;3.664;2023-06-26T04:40:44;16.52;;;3.88;;
56043;SDS011;41912;51.022;3.664;2023-06-26T04:43:10;14.18;;;4.35;;
56043;SDS011;41912;51.022;3.664;2023-06-26T04:45:36;13.63;;;3.25;;
56043;SDS011;41912;51.022;3.664;2023-06-26T04:48:02;19.58;;;4.55;;
56043;SDS011;41912;51.022;3.664;2023-06-26T04:50:28;14.20;;;3.50;;
56043;SDS011;41912;51.022;3.664;2023-06-26T04:52:55;15.65;;;2.65;;
56043;SDS011;41912;51.022;3.664;2023-06-26T04:55:21;15.82;;;3.33;;
56043;SDS011;41912;51.022;3.664;2023-06-26T04:57:49;11.90;;;3.25;;
56043;SDS011;41912;51.022;3.664;2023-06-26T05:00:15;9.95;;;2.90;;
56043;SDS011;41912;51.022;3.664;2023-06-26T05:02:41;12.85;;;3.38;;
56043;SDS011;41912;51.022;3.664;2023-06-26T05:05:06;7.45;;;2.70;;
56043;SDS011;41912;51.022;3.664;2023-06-26T05:07:32;10.05;;;2.45;;
56043;SDS011;41912;51.022;3.664;2023-06-26T05:09:58;12.65;;;2.80;;
56043;SDS011;41912;51.022;3.664;2023-06-26T05:12:24;12.63;;;3.00;;
56043;SDS011;41912;51.022;3.664;2023-06-26T05:14:49;17.50;;;3.63;;
56043;SDS011;41912;51.022;3.664;2023-06-26T05:17:15;12.02;;;2.70;;
56043;SDS011;41912;51.022;3.664;2023-06-26T05:19:41;11.18;;;2.90;;
56043;SDS011;41912;51.022;3.664;2023-06-26T05:22:06;11.55;;;2.38;;
56043;SDS011;41912;51.022;3.664;2023-06-26T05:24:33;12.50;;;3.08;;
56043;SDS011;41912;51.022;3.664;2023-06-26T05:27:01;8.40;;;2.63;;
56043;SDS011;41912;51.022;3.664;2023-06-26T05:29:27;8.98;;;3.33;;
56043;SDS011;41912;51.022;3.664;2023-06-26T05:31:54;10.45;;;2.45;;
56043;SDS011;41912;51.022;3.664;2023-06-26T05:34:25;10.15;;;2.92;;
56043;SDS011;41912;51.022;3.664;2023-06-26T05:36:57;13.73;;;2.65;;
56043;SDS011;41912;51.022;3.664;2023-06-26T05:39:24;12.07;;;3.35;;
56043;SDS011;41912;51.022;3.664;2023-06-26T05:41:50;12.95;;;3.28;;
56043;SDS011;41912;51.022;3.664;2023-06-26T05:44:16;11.40;;;2.38;;
56043;SDS011;41912;51.022;3.664;2023-06-26T05:46:42;12.38;;;2.83;;
56043;SDS011;41912;51.022;3.664;2023-06-26T05:49:09;12.80;;;2.15;;
56043;SDS011;41912;51.022;3.664;2023-06-26T05:51:35;12.73;;;2.67;;
56043;SDS011;41912;51.022;3.664;2023-06-26T05:54:01;14.45;;;2.70;;
56043;SDS011;41912;51.022;3.664;2023-06-26T05:56:26;10.75;;;2.30;;
56043;SDS011;41912;51.022;3.664;2023-06-26T05:58:53;8.95;;;2.38;;
56043;SDS011;41912;51.022;3.664;2023-06-26T06:01:19;9.45;;;2.40;;
56043;SDS011;41912;51.022;3.664;2023-06-26T06:03:45;11.10;;;2.78;;
56043;SDS011;41912;51.022;3.664;2023-06-26T06:06:11;12.52;;;2.88;;
56043;SDS011;41912;51.022;3.664;2023-06-26T06:08:37;10.70;;;2.75;;
56043;SDS011;41912;51.022;3.664;2023-06-26T06:11:02;15.20;;;2.80;;
56043;SDS011;41912;51.022;3.664;2023-06-26T06:13:28;13.95;;;2.88;;
56043;SDS011;41912;51.022;3.664;2023-06-26T06:15:54;13.18;;;2.90;;
56043;SDS011;41912;51.022;3.664;2023-06-26T06:18:20;13.95;;;2.72;;
56043;SDS011;41912;51.022;3.664;2023-06-26T06:20:46;7.47;;;2.10;;
56043;SDS011;41912;51.022;3.664;2023-06-26T06:23:12;9.40;;;1.95;;
56043;SDS011;41912;51.022;3.664;2023-06-26T06:25:37;9.80;;;2.22;;
56043;SDS011;41912;51.022;3.664;2023-06-26T06:28:04;11.10;;;2.45;;
56043;SDS011;41912;51.022;3.664;2023-06-26T06:30:30;9.75;;;2.50;;
56043;SDS011;41912;51.022;3.664;2023-06-26T06:32:55;11.88;;;2.35;;
56043;SDS011;41912;51.022;3.664;2023-06-26T06:35:22;6.40;;;1.98;;
56043;SDS011;41912;51.022;3.664;2023-06-26T06:37:49;11.73;;;2.65;;
56043;SDS011;41912;51.022;3.664;2023-06-26T06:40:14;11.02;;;2.80;;
56043;SDS011;41912;51.022;3.664;2023-06-26T06:42:40;7.93;;;2.30;;
56043;SDS011;41912;51.022;3.664;2023-06-26T06:45:06;11.70;;;2.58;;
56043;SDS011;41912;51.022;3.664;2023-06-26T06:47:32;10.68;;;2.22;;
56043;SDS011;41912;51.022;3.664;2023-06-26T06:50:00;7.25;;;2.30;;
56043;SDS011;41912;51.022;3.664;2023-06-26T06:52:33;9.52;;;1.88;;
56043;SDS011;41912;51.022;3.664;2023-06-26T06:55:02;11.23;;;2.53;;
56043;SDS011;41912;51.022;3.664;2023-06-26T06:57:31;7.35;;;2.38;;
56043;SDS011;41912;51.022;3.664;2023-06-26T07:00:01;9.40;;;2.50;;
56043;SDS011;41912;51.022;3.664;2023-06-26T07:02:29;6.45;;;1.67;;
56043;SDS011;41912;51.022;3.664;2023-06-26T07:04:55;8.45;;;2.38;;
56043;SDS011;41912;51.022;3.664;2023-06-26T07:07:21;7.30;;;2.03;;
56043;SDS011;41912;51.022;3.664;2023-06-26T07:09:46;12.65;;;2.25;;
56043;SDS011;41912;51.022;3.664;2023-06-26T07:12:12;7.80;;;2.17;;
56043;SDS011;41912;51.022;3.664;2023-06-26T07:14:38;7.90;;;2.20;;
56043;SDS011;41912;51.022;3.664;2023-06-26T07:17:04;12.35;;;1.90;;
56043;SDS011;41912;51.022;3.664;2023-06-26T07:19:30;6.63;;;1.90;;
56043;SDS011;41912;51.022;3.664;2023-06-26T07:21:55;10.65;;;1.85;;
56043;SDS011;41912;51.022;3.664;2023-06-26T07:24:21;8.40;;;1.83;;
56043;SDS011;41912;51.022;3.664;2023-06-26T07:26:46;10.68;;;1.95;;
56043;SDS011;41912;51.022;3.664;2023-06-26T07:29:12;9.70;;;2.35;;
56043;SDS011;41912;51.022;3.664;2023-06-26T07:31:37;7.75;;;1.60;;
56043;SDS011;41912;51.022;3.664;2023-06-26T07:34:04;8.38;;;1.77;;
56043;SDS011;41912;51.022;3.664;2023-06-26T07:36:29;8.50;;;1.77;;
56043;SDS011;41912;51.022;3.664;2023-06-26T07:38:55;6.97;;;1.67;;
56043;SDS011;41912;51.022;3.664;2023-06-26T07:41:20;5.18;;;1.40;;
56043;SDS011;41912;51.022;3.664;2023-06-26T07:43:46;7.05;;;1.58;;
56043;SDS011;41912;51.022;3.664;2023-06-26T07:46:11;8.95;;;1.90;;
56043;SDS011;41912;51.022;3.664;2023-06-26T07:48:37;6.70;;;1.55;;
56043;SDS011;41912;51.022;3.664;2023-06-26T07:51:03;9.40;;;1.40;;
56043;SDS011;41912;51.022;3.664;2023-06-26T07:53:28;5.82;;;1.23;;
56043;SDS011;41912;51.022;3.664;2023-06-26T07:55:54;6.07;;;1.33;;
56043;SDS011;41912;51.022;3.664;2023-06-26T07:58:19;4.53;;;1.13;;
56043;SDS011;41912;51.022;3.664;2023-06-26T08:00:45;6.05;;;1.50;;
56043;SDS011;41912;51.022;3.664;2023-06-26T08:03:11;6.53;;;1.30;;
56043;SDS011;41912;51.022;3.664;2023-06-26T08:05:36;4.38;;;1.55;;
56043;SDS011;41912;51.022;3.664;2023-06-26T08:08:02;7.15;;;1.25;;
56043;SDS011;41912;51.022;3.664;2023-06-26T08:10:28;9.43;;;1.50;;
56043;SDS011;41912;51.022;3.664;2023-06-26T08:12:55;4.55;;;1.27;;
56043;SDS011;41912;51.022;3.664;2023-06-26T08:15:21;3.80;;;1.23;;
56043;SDS011;41912;51.022;3.664;2023-06-26T08:17:46;5.53;;;1.55;;
56043;SDS011;41912;51.022;3.664;2023-06-26T08:20:12;5.95;;;1.30;;
56043;SDS011;41912;51.022;3.664;2023-06-26T08:22:38;5.75;;;1.60;;
56043;SDS011;41912;51.022;3.664;2023-06-26T08:25:03;10.18;;;1.88;;
56043;SDS011;41912;51.022;3.664;2023-06-26T08:27:30;8.15;;;1.88;;
56043;SDS011;41912;51.022;3.664;2023-06-26T08:29:57;5.70;;;1.30;;
56043;SDS011;41912;51.022;3.664;2023-06-26T08:32:22;7.35;;;1.63;;
56043;SDS011;41912;51.022;3.664;2023-06-26T08:34:48;8.05;;;1.67;;
56043;SDS011;41912;51.022;3.664;2023-06-26T08:37:13;9.98;;;1.70;;
56043;SDS011;41912;51.022;3.664;2023-06-26T08:39:39;5.15;;;1.52;;
56043;SDS011;41912;51.022;3.664;2023-06-26T08:42:05;6.72;;;1.73;;
56043;SDS011;41912;51.022;3.664;2023-06-26T08:44:30;8.07;;;1.40;;
56043;SDS011;41912;51.022;3.664;2023-06-26T08:46:56;6.43;;;1.50;;
56043;SDS011;41912;51.022;3.664;2023-06-26T08:49:39;13.18;;;1.92;;
56043;SDS011;41912;51.022;3.664;2023-06-26T08:52:24;6.47;;;1.60;;
56043;SDS011;41912;51.022;3.664;2023-06-26T08:54:57;6.78;;;1.73;;
56043;SDS011;41912;51.022;3.664;2023-06-26T08:57:23;6.32;;;1.60;;
56043;SDS011;41912;51.022;3.664;2023-06-26T08:59:51;7.53;;;1.63;;
56043;SDS011;41912;51.022;3.664;2023-06-26T09:02:17;6.45;;;1.40;;
56043;SDS011;41912;51.022;3.664;2023-06-26T09:04:46;8.60;;;1.30;;
56043;SDS011;41912;51.022;3.664;2023-06-26T09:07:13;5.90;;;1.52;;
56043;SDS011;41912;51.022;3.664;2023-06-26T09:09:39;6.72;;;1.45;;
56043;SDS011;41912;51.022;3.664;2023-06-26T09:12:05;5.90;;;2.00;;
56043;SDS011;41912;51.022;3.664;2023-06-26T09:14:31;6.13;;;1.95;;
56043;SDS011;41912;51.022;3.664;2023-06-26T09:16:57;4.70;;;1.40;;
56043;SDS011;41912;51.022;3.664;2023-06-26T09:19:23;7.35;;;1.52;;
56043;SDS011;41912;51.022;3.664;2023-06-26T09:21:49;7.32;;;1.60;;
56043;SDS011;41912;51.022;3.664;2023-06-26T09:24:16;5.55;;;1.50;;
56043;SDS011;41912;51.022;3.664;2023-06-26T09:26:42;8.35;;;1.70;;
56043;SDS011;41912;51.022;3.664;2023-06-26T09:29:08;8.52;;;1.40;;
56043;SDS011;41912;51.022;3.664;2023-06-26T09:31:38;8.35;;;1.23;;
56043;SDS011;41912;51.022;3.664;2023-06-26T09:34:04;6.70;;;1.90;;
56043;SDS011;41912;51.022;3.664;2023-06-26T09:36:31;5.97;;;1.20;;
56043;SDS011;41912;51.022;3.664;2023-06-26T09:39:00;4.82;;;1.50;;
56043;SDS011;41912;51.022;3.664;2023-06-26T09:41:27;5.20;;;1.30;;
56043;SDS011;41912;51.022;3.664;2023-06-26T09:43:53;9.60;;;1.52;;
56043;SDS011;41912;51.022;3.664;2023-06-26T09:48:48;9.88;;;1.60;;
56043;SDS011;41912;51.022;3.664;2023-06-26T09:51:16;6.22;;;1.30;;
56043;SDS011;41912;51.022;3.664;2023-06-26T09:53:47;6.40;;;1.30;;
56043;SDS011;41912;51.022;3.664;2023-06-26T09:56:16;6.10;;;1.67;;
56043;SDS011;41912;51.022;3.664;2023-06-26T09:58:43;4.47;;;1.20;;
56043;SDS011;41912;51.022;3.664;2023-06-26T10:01:09;6.22;;;1.50;;
56043;SDS011;41912;51.022;3.664;2023-06-26T10:03:35;7.60;;;1.20;;
56043;SDS011;41912;51.022;3.664;2023-06-26T10:06:01;3.50;;;1.52;;
56043;SDS011;41912;51.022;3.664;2023-06-26T10:08:28;5.93;;;1.30;;
56043;SDS011;41912;51.022;3.664;2023-06-26T10:10:55;8.95;;;1.33;;
56043;SDS011;41912;51.022;3.664;2023-06-26T10:13:22;11.50;;;1.35;;
56043;SDS011;41912;51.022;3.664;2023-06-26T10:15:52;9.93;;;1.42;;
56043;SDS011;41912;51.022;3.664;2023-06-26T10:18:20;3.88;;;1.23;;
56043;SDS011;41912;51.022;3.664;2023-06-26T10:20:49;7.13;;;2.00;;
56043;SDS011;41912;51.022;3.664;2023-06-26T10:23:16;5.88;;;1.60;;
56043;SDS011;41912;51.022;3.664;2023-06-26T10:25:44;6.47;;;1.15;;
56043;SDS011;41912;51.022;3.664;2023-06-26T10:28:13;6.80;;;1.60;;
56043;SDS011;41912;51.022;3.664;2023-06-26T10:30:41;3.60;;;1.10;;
56043;SDS011;41912;51.022;3.664;2023-06-26T10:33:09;4.70;;;1.30;;
56043;SDS011;41912;51.022;3.664;2023-06-26T10:35:42;10.82;;;1.60;;
56043;SDS011;41912;51.022;3.664;2023-06-26T10:38:09;5.72;;;1.50;;
56043;SDS011;41912;51.022;3.664;2023-06-26T10:40:45;9.23;;;1.70;;
56043;SDS011;41912;51.022;3.664;2023-06-26T10:43:14;7.85;;;1.58;;
56043;SDS011;41912;51.022;3.664;2023-06-26T10:45:47;5.43;;;1.10;;
56043;SDS011;41912;51.022;3.664;2023-06-26T10:48:20;3.85;;;1.50;;
56043;SDS011;41912;51.022;3.664;2023-06-26T10:50:48;6.22;;;1.83;;
56043;SDS011;41912;51.022;3.664;2023-06-26T10:56:00;5.65;;;1.13;;
56043;SDS011;41912;51.022;3.664;2023-06-26T11:03:38;11.27;;;1.50;;
56043;SDS011;41912;51.022;3.664;2023-06-26T11:06:13;9.23;;;1.40;;
56043;SDS011;41912;51.022;3.664;2023-06-26T11:08:50;7.45;;;1.60;;
56043;SDS011;41912;51.022;3.664;2023-06-26T11:11:54;4.82;;;1.27;;
56043;SDS011;41912;51.022;3.664;2023-06-26T11:14:24;4.22;;;1.90;;
56043;SDS011;41912;51.022;3.664;2023-06-26T11:16:51;9.32;;;1.75;;
56043;SDS011;41912;51.022;3.664;2023-06-26T11:19:18;5.65;;;1.25;;
56043;SDS011;41912;51.022;3.664;2023-06-26T11:21:44;7.70;;;2.15;;
56043;SDS011;41912;51.022;3.664;2023-06-26T11:24:11;6.07;;;1.23;;
56043;SDS011;41912;51.022;3.664;2023-06-26T11:26:39;6.72;;;1.02;;
56043;SDS011;41912;51.022;3.664;2023-06-26T11:29:08;5.85;;;1.42;;
56043;SDS011;41912;51.022;3.664;2023-06-26T11:31:38;4.60;;;1.17;;
56043;SDS011;41912;51.022;3.664;2023-06-26T11:34:08;4.60;;;1.10;;
56043;SDS011;41912;51.022;3.664;2023-06-26T11:36:37;7.65;;;1.63;;
56043;SDS011;41912;51.022;3.664;2023-06-26T11:39:06;5.93;;;1.50;;
56043;SDS011;41912;51.022;3.664;2023-06-26T11:41:33;5.63;;;1.30;;
56043;SDS011;41912;51.022;3.664;2023-06-26T11:44:00;7.22;;;1.42;;
56043;SDS011;41912;51.022;3.664;2023-06-26T11:46:27;9.82;;;2.05;;
56043;SDS011;41912;51.022;3.664;2023-06-26T11:48:53;7.53;;;1.50;;
56043;SDS011;41912;51.022;3.664;2023-06-26T11:51:19;7.60;;;1.20;;
56043;SDS011;41912;51.022;3.664;2023-06-26T11:53:46;5.30;;;1.45;;
56043;SDS011;41912;51.022;3.664;2023-06-26T11:56:14;6.55;;;1.50;;
56043;SDS011;41912;51.022;3.664;2023-06-26T12:01:35;7.47;;;1.60;;
56043;SDS011;41912;51.022;3.664;2023-06-26T12:04:02;3.22;;;1.20;;
56043;SDS011;41912;51.022;3.664;2023-06-26T12:06:33;6.90;;;1.17;;
56043;SDS011;41912;51.022;3.664;2023-06-26T12:09:00;11.15;;;1.30;;
56043;SDS011;41912;51.022;3.664;2023-06-26T12:11:30;5.57;;;1.52;;
56043;SDS011;41912;51.022;3.664;2023-06-26T12:13:56;4.20;;;1.30;;
56043;SDS011;41912;51.022;3.664;2023-06-26T12:16:22;8.52;;;1.30;;
56043;SDS011;41912;51.022;3.664;2023-06-26T12:18:48;6.30;;;1.85;;
56043;SDS011;41912;51.022;3.664;2023-06-26T12:24:09;5.10;;;1.60;;
56043;SDS011;41912;51.022;3.664;2023-06-26T12:26:38;6.50;;;1.60;;
56043;SDS011;41912;51.022;3.664;2023-06-26T12:29:07;7.43;;;1.90;;
56043;SDS011;41912;51.022;3.664;2023-06-26T12:31:39;4.75;;;1.35;;
56043;SDS011;41912;51.022;3.664;2023-06-26T12:34:15;5.88;;;1.35;;
56043;SDS011;41912;51.022;3.664;2023-06-26T12:36:46;5.97;;;1.45;;
56043;SDS011;41912;51.022;3.664;2023-06-26T12:39:15;5.32;;;2.03;;
56043;SDS011;41912;51.022;3.664;2023-06-26T12:41:45;4.32;;;1.52;;
56043;SDS011;41912;51.022;3.664;2023-06-26T12:44:22;8.07;;;2.10;;
56043;SDS011;41912;51.022;3.664;2023-06-26T12:46:58;2.90;;;1.23;;
56043;SDS011;41912;51.022;3.664;2023-06-26T12:49:37;6.35;;;1.60;;
56043;SDS011;41912;51.022;3.664;2023-06-26T12:52:04;4.32;;;1.60;;
56043;SDS011;41912;51.022;3.664;2023-06-26T12:54:31;10.88;;;1.77;;
56043;SDS011;41912;51.022;3.664;2023-06-26T12:56:58;5.10;;;1.48;;
56043;SDS011;41912;51.022;3.664;2023-06-26T12:59:23;5.03;;;1.48;;
56043;SDS011;41912;51.022;3.664;2023-06-26T13:01:49;3.92;;;1.17;;
56043;SDS011;41912;51.022;3.664;2023-06-26T13:04:15;5.88;;;1.30;;
56043;SDS011;41912;51.022;3.664;2023-06-26T13:06:41;6.55;;;1.58;;
56043;SDS011;41912;51.022;3.664;2023-06-26T13:09:06;7.50;;;1.50;;
56043;SDS011;41912;51.022;3.664;2023-06-26T13:11:36;6.32;;;1.60;;
56043;SDS011;41912;51.022;3.664;2023-06-26T13:14:02;6.30;;;1.63;;
56043;SDS011;41912;51.022;3.664;2023-06-26T13:16:28;6.43;;;1.80;;
56043;SDS011;41912;51.022;3.664;2023-06-26T13:18:54;4.95;;;1.38;;
56043;SDS011;41912;51.022;3.664;2023-06-26T13:21:23;6.80;;;1.65;;
56043;SDS011;41912;51.022;3.664;2023-06-26T13:23:48;4.65;;;1.40;;
56043;SDS011;41912;51.022;3.664;2023-06-26T13:26:14;4.13;;;1.55;;
56043;SDS011;41912;51.022;3.664;2023-06-26T13:28:43;4.85;;;1.20;;
56043;SDS011;41912;51.022;3.664;2023-06-26T13:31:08;9.02;;;1.38;;
56043;SDS011;41912;51.022;3.664;2023-06-26T13:33:34;3.67;;;1.20;;
56043;SDS011;41912;51.022;3.664;2023-06-26T13:36:00;4.07;;;1.38;;
56043;SDS011;41912;51.022;3.664;2023-06-26T13:38:26;4.38;;;1.40;;
56043;SDS011;41912;51.022;3.664;2023-06-26T13:40:52;4.47;;;1.02;;
56043;SDS011;41912;51.022;3.664;2023-06-26T13:43:20;4.07;;;1.55;;
56043;SDS011;41912;51.022;3.664;2023-06-26T13:45:46;6.18;;;1.33;;
56043;SDS011;41912;51.022;3.664;2023-06-26T13:48:12;4.43;;;1.10;;
56043;SDS011;41912;51.022;3.664;2023-06-26T13:50:38;6.55;;;1.40;;
56043;SDS011;41912;51.022;3.664;2023-06-26T13:53:04;2.13;;;1.00;;
56043;SDS011;41912;51.022;3.664;2023-06-26T13:55:29;6.45;;;1.67;;
56043;SDS011;41912;51.022;3.664;2023-06-26T13:57:56;3.60;;;1.00;;
56043;SDS011;41912;51.022;3.664;2023-06-26T14:00:22;6.22;;;1.20;;
56043;SDS011;41912;51.022;3.664;2023-06-26T14:02:48;5.80;;;1.15;;
56043;SDS011;41912;51.022;3.664;2023-06-26T14:05:13;4.90;;;1.02;;
56043;SDS011;41912;51.022;3.664;2023-06-26T14:07:39;3.05;;;1.15;;
56043;SDS011;41912;51.022;3.664;2023-06-26T14:10:06;5.32;;;1.08;;
56043;SDS011;41912;51.022;3.664;2023-06-26T14:12:32;5.18;;;1.00;;
56043;SDS011;41912;51.022;3.664;2023-06-26T14:14:59;4.63;;;1.20;;
56043;SDS011;41912;51.022;3.664;2023-06-26T14:17:25;4.22;;;0.88;;
56043;SDS011;41912;51.022;3.664;2023-06-26T14:19:51;6.22;;;1.40;;
56043;SDS011;41912;51.022;3.664;2023-06-26T14:22:17;5.15;;;1.00;;
56043;SDS011;41912;51.022;3.664;2023-06-26T14:24:43;6.57;;;1.05;;
56043;SDS011;41912;51.022;3.664;2023-06-26T14:27:09;2.47;;;0.70;;
56043;SDS011;41912;51.022;3.664;2023-06-26T14:29:38;8.13;;;1.30;;
56043;SDS011;41912;51.022;3.664;2023-06-26T14:32:03;5.38;;;1.10;;
56043;SDS011;41912;51.022;3.664;2023-06-26T14:34:29;4.88;;;1.10;;
56043;SDS011;41912;51.022;3.664;2023-06-26T14:36:55;4.63;;;1.27;;
56043;SDS011;41912;51.022;3.664;2023-06-26T14:39:21;7.28;;;1.25;;
56043;SDS011;41912;51.022;3.664;2023-06-26T14:41:46;3.08;;;1.30;;
56043;SDS011;41912;51.022;3.664;2023-06-26T14:44:13;7.00;;;1.17;;
56043;SDS011;41912;51.022;3.664;2023-06-26T14:46:42;5.28;;;1.25;;
56043;SDS011;41912;51.022;3.664;2023-06-26T14:49:08;5.30;;;1.60;;
56043;SDS011;41912;51.022;3.664;2023-06-26T14:51:34;4.78;;;1.45;;
56043;SDS011;41912;51.022;3.664;2023-06-26T14:54:00;5.95;;;1.15;;
56043;SDS011;41912;51.022;3.664;2023-06-26T14:56:26;5.97;;;1.65;;
56043;SDS011;41912;51.022;3.664;2023-06-26T14:58:51;2.22;;;1.13;;